createdAt,value
2018-08-06T00:00:22.938Z,20.07
2018-08-06T00:01:22.912Z,20.22
2018-08-06T00:02:22.879Z,20.25
2018-08-06T00:03:22.855Z,20.18
2018-08-06T00:04:22.811Z,20.11
2018-08-06T00:05:22.776Z,20.04
2018-08-06T00:06:22.745Z,20.09
2018-08-06T00:07:22.718Z,20.07
2018-08-06T00:08:22.686Z,19.94
2018-08-06T00:09:22.655Z,19.94
2018-08-06T00:10:22.624Z,19.94
2018-08-06T00:11:22.592Z,19.94
2018-08-06T00:12:22.558Z,19.94
2018-08-06T00:13:22.522Z,19.91
2018-08-06T00:14:22.490Z,19.86
2018-08-06T00:15:22.459Z,19.88
2018-08-06T00:16:22.431Z,19.91
2018-08-06T00:17:22.400Z,19.85
2018-08-06T00:18:22.361Z,19.91
2018-08-06T00:19:22.333Z,19.82
2018-08-06T00:20:22.303Z,19.82
2018-08-06T00:21:22.273Z,19.82
2018-08-06T00:22:22.241Z,19.85
2018-08-06T00:23:22.206Z,19.92
2018-08-06T00:24:22.173Z,19.89
2018-08-06T00:25:22.137Z,19.64
2018-08-06T00:26:22.107Z,19.64
2018-08-06T00:27:22.076Z,19.52
2018-08-06T00:28:22.050Z,19.51
2018-08-06T00:29:22.015Z,19.58
2018-08-06T00:30:21.983Z,19.49
2018-08-06T00:31:21.950Z,19.56
2018-08-06T00:32:21.917Z,19.55
2018-08-06T00:33:21.881Z,19.51
2018-08-06T00:34:21.855Z,19.58
2018-08-06T00:35:21.821Z,19.59
2018-08-06T00:36:21.792Z,19.62
2018-08-06T00:37:21.753Z,19.55
2018-08-06T00:38:21.720Z,19.56
2018-08-06T00:39:21.691Z,19.52
2018-08-06T00:40:21.660Z,19.66
2018-08-06T00:42:53.711Z,19.62
2018-08-06T00:43:53.657Z,19.56
2018-08-06T00:44:53.609Z,19.54
2018-08-06T00:45:53.579Z,19.56
2018-08-06T00:46:53.548Z,19.54
2018-08-06T00:47:53.517Z,19.54
2018-08-06T00:48:53.487Z,19.45
2018-08-06T00:49:53.463Z,19.45
2018-08-06T00:50:53.424Z,19.26
2018-08-06T00:51:53.384Z,18.98
2018-08-06T00:52:53.355Z,18.93
2018-08-06T00:53:53.325Z,18.86
2018-08-06T00:54:53.293Z,18.78
2018-08-06T00:55:53.255Z,18.81
2018-08-06T00:56:53.222Z,18.86
2018-08-06T00:57:53.189Z,18.90
2018-08-06T00:58:53.159Z,18.92
2018-08-06T00:59:53.141Z,18.92
2018-08-06T01:00:53.098Z,18.88
2018-08-06T01:01:53.066Z,18.92
2018-08-06T01:02:53.034Z,18.95
2018-08-06T01:03:52.994Z,18.93
2018-08-06T01:04:52.966Z,18.92
2018-08-06T01:05:52.934Z,18.89
2018-08-06T01:06:52.897Z,18.93
2018-08-06T01:07:52.874Z,18.84
2018-08-06T01:08:52.838Z,18.92
2018-08-06T01:09:52.803Z,18.92
2018-08-06T01:10:52.770Z,18.92
2018-08-06T01:11:52.743Z,18.81
2018-08-06T01:12:52.706Z,18.75
2018-08-06T01:13:52.674Z,18.50
2018-08-06T01:14:52.644Z,18.45
2018-08-06T01:15:52.607Z,18.58
2018-08-06T01:16:52.575Z,18.49
2018-08-06T01:17:52.542Z,18.58
2018-08-06T01:18:52.509Z,18.60
2018-08-06T01:19:52.481Z,18.66
2018-08-06T01:20:52.454Z,18.77
2018-08-06T01:21:52.417Z,18.71
2018-08-06T01:22:52.383Z,18.73
2018-08-06T01:23:52.346Z,18.81
2018-08-06T01:24:52.313Z,18.78
2018-08-06T01:25:52.287Z,18.74
2018-08-06T01:26:52.255Z,18.78
2018-08-06T01:27:52.217Z,18.73
2018-08-06T01:28:52.183Z,18.78
2018-08-06T01:29:52.151Z,18.80
2018-08-06T01:30:52.117Z,18.86
2018-08-06T01:31:52.092Z,18.84
2018-08-06T01:32:52.055Z,18.84
2018-08-06T01:33:52.023Z,18.90
2018-08-06T01:34:51.994Z,18.96
2018-08-06T01:35:51.953Z,18.93
2018-08-06T01:36:51.922Z,18.95
2018-08-06T01:37:51.888Z,19.00
2018-08-06T01:38:51.855Z,18.99
2018-08-06T01:39:51.828Z,18.93
2018-08-06T01:40:51.794Z,18.84
2018-08-06T01:41:51.760Z,18.80
2018-08-06T01:42:51.724Z,18.84
2018-08-06T01:43:51.697Z,18.86
2018-08-06T01:44:51.663Z,18.89
2018-08-06T01:45:51.709Z,18.92
2018-08-06T01:46:51.601Z,18.98
2018-08-06T01:47:51.561Z,18.92
2018-08-06T01:48:51.529Z,18.93
2018-08-06T01:49:51.500Z,18.90
2018-08-06T01:50:51.463Z,18.89
2018-08-06T01:51:51.436Z,18.78
2018-08-06T01:52:51.401Z,18.80
2018-08-06T01:53:51.369Z,18.83
2018-08-06T01:54:51.339Z,18.77
2018-08-06T01:55:51.300Z,18.78
2018-08-06T01:56:51.267Z,18.70
2018-08-06T01:57:51.238Z,18.68
2018-08-06T01:58:51.207Z,18.68
2018-08-06T01:59:51.168Z,18.56
2018-08-06T02:00:51.138Z,18.41
2018-08-06T02:01:51.105Z,18.49
2018-08-06T02:02:51.070Z,18.53
2018-08-06T02:03:51.046Z,18.55
2018-08-06T02:04:51.010Z,18.66
2018-08-06T02:05:50.976Z,18.59
2018-08-06T02:06:50.946Z,18.63
2018-08-06T02:07:50.908Z,18.66
2018-08-06T02:08:50.877Z,18.71
2018-08-06T02:09:50.843Z,18.81
2018-08-06T02:10:50.808Z,18.77
2018-08-06T02:11:50.780Z,18.78
2018-08-06T02:12:50.746Z,18.80
2018-08-06T02:13:50.711Z,18.83
2018-08-06T02:14:50.676Z,18.86
2018-08-06T02:15:50.649Z,18.92
2018-08-06T02:16:50.614Z,18.95
2018-08-06T02:17:50.582Z,18.96
2018-08-06T02:18:50.554Z,18.98
2018-08-06T02:19:50.511Z,18.90
2018-08-06T02:20:50.484Z,18.80
2018-08-06T02:21:50.449Z,18.81
2018-08-06T02:22:50.418Z,18.78
2018-08-06T02:23:50.387Z,18.81
2018-08-06T02:24:50.353Z,18.84
2018-08-06T02:25:50.325Z,18.86
2018-08-06T02:26:50.289Z,18.88
2018-08-06T02:27:50.252Z,18.88
2018-08-06T02:28:50.220Z,18.90
2018-08-06T02:29:50.188Z,18.93
2018-08-06T02:30:50.162Z,18.92
2018-08-06T02:31:50.119Z,19.07
2018-08-06T02:32:50.089Z,19.08
2018-08-06T02:33:50.055Z,19.02
2018-08-06T02:34:50.026Z,19.11
2018-08-06T02:35:50.004Z,19.11
2018-08-06T02:36:49.958Z,19.11
2018-08-06T02:37:49.926Z,19.09
2018-08-06T02:38:49.895Z,19.07
2018-08-06T02:39:49.855Z,18.90
2018-08-06T02:40:49.824Z,18.86
2018-08-06T02:41:49.793Z,18.70
2018-08-06T02:42:49.759Z,18.71
2018-08-06T02:43:49.736Z,18.50
2018-08-06T02:44:49.696Z,18.44
2018-08-06T02:45:49.662Z,18.38
2018-08-06T02:46:49.631Z,18.40
2018-08-06T02:47:49.598Z,18.37
2018-08-06T02:48:49.563Z,18.38
2018-08-06T02:49:49.531Z,18.40
2018-08-06T02:50:49.500Z,18.29
2018-08-06T02:51:49.465Z,18.38
2018-08-06T02:52:49.431Z,18.34
2018-08-06T02:53:49.397Z,18.38
2018-08-06T02:54:49.362Z,18.35
2018-08-06T02:55:49.336Z,18.34
2018-08-06T02:56:49.300Z,18.33
2018-08-06T02:57:49.267Z,18.38
2018-08-06T02:58:49.239Z,18.49
2018-08-06T02:59:49.197Z,18.47
2018-08-06T03:00:49.165Z,18.41
2018-08-06T03:01:49.135Z,18.41
2018-08-06T03:02:49.105Z,18.41
2018-08-06T03:03:49.075Z,18.43
2018-08-06T03:04:49.036Z,18.41
2018-08-06T03:05:49.002Z,18.41
2018-08-06T03:06:48.967Z,18.41
2018-08-06T03:07:48.941Z,18.40
2018-08-06T03:08:48.905Z,18.43
2018-08-06T03:09:48.872Z,18.41
2018-08-06T03:10:48.841Z,18.34
2018-08-06T03:11:48.802Z,18.35
2018-08-06T03:12:48.769Z,18.35
2018-08-06T03:13:48.737Z,18.22
2018-08-06T03:14:48.704Z,18.34
2018-08-06T03:15:48.674Z,18.35
2018-08-06T03:16:48.640Z,18.26
2018-08-06T03:17:48.605Z,18.19
2018-08-06T03:18:48.570Z,18.22
2018-08-06T03:19:48.544Z,18.29
2018-08-06T03:20:48.507Z,18.34
2018-08-06T03:21:48.475Z,18.44
2018-08-06T03:22:48.443Z,18.41
2018-08-06T03:23:48.407Z,18.55
2018-08-06T03:24:48.373Z,18.62
2018-08-06T03:25:48.346Z,18.60
2018-08-06T03:26:48.305Z,18.71
2018-08-06T03:27:48.279Z,18.77
2018-08-06T03:28:48.243Z,18.73
2018-08-06T03:29:48.210Z,18.71
2018-08-06T03:30:48.179Z,18.71
2018-08-06T03:31:48.138Z,18.66
2018-08-06T03:32:48.113Z,18.58
2018-08-06T03:33:48.079Z,18.59
2018-08-06T03:34:48.057Z,18.60
2018-08-06T03:35:48.007Z,18.59
2018-08-06T03:36:47.974Z,18.74
2018-08-06T03:37:47.942Z,18.71
2018-08-06T03:38:47.908Z,18.74
2018-08-06T03:39:47.878Z,18.74
2018-08-06T03:40:47.845Z,18.77
2018-08-06T03:41:47.814Z,18.66
2018-08-06T03:42:47.781Z,18.63
2018-08-06T03:43:47.741Z,18.59
2018-08-06T03:44:47.727Z,18.59
2018-08-06T03:45:47.677Z,18.75
2018-08-06T03:46:47.641Z,18.75
2018-08-06T03:47:47.615Z,18.75
2018-08-06T03:48:47.579Z,18.78
2018-08-06T03:49:47.544Z,18.73
2018-08-06T03:50:47.509Z,18.78
2018-08-06T03:51:47.481Z,18.81
2018-08-06T04:08:24.633Z,18.70
2018-08-06T04:09:24.550Z,18.73
2018-08-06T04:10:24.514Z,18.71
2018-08-06T04:11:24.482Z,18.70
2018-08-06T04:12:24.444Z,18.60
2018-08-06T04:13:24.456Z,18.58
2018-08-06T04:14:24.368Z,18.56
2018-08-06T04:15:24.332Z,18.56
2018-08-06T04:16:24.298Z,18.58
2018-08-06T04:17:24.257Z,18.43
2018-08-06T04:18:24.223Z,18.33
2018-08-06T04:19:24.191Z,18.33
2018-08-06T04:20:24.158Z,18.29
2018-08-06T04:21:24.118Z,18.19
2018-08-06T04:22:24.084Z,18.19
2018-08-06T04:23:24.050Z,18.08
2018-08-06T04:24:24.014Z,18.13
2018-08-06T04:25:23.985Z,18.03
2018-08-06T04:26:23.952Z,18.03
2018-08-06T04:27:23.915Z,17.98
2018-08-06T04:28:23.886Z,18.01
2018-08-06T04:29:23.842Z,17.97
2018-08-06T04:30:23.814Z,17.85
2018-08-06T04:31:23.776Z,17.85
2018-08-06T04:32:23.756Z,17.74
2018-08-06T04:33:23.713Z,17.67
2018-08-06T04:34:23.679Z,17.59
2018-08-06T04:35:23.642Z,17.36
2018-08-06T04:36:23.608Z,17.39
2018-08-06T04:37:23.577Z,17.27
2018-08-06T04:38:23.543Z,17.29
2018-08-06T04:39:23.508Z,17.23
2018-08-06T04:40:23.480Z,17.29
2018-08-06T04:41:23.440Z,17.34
2018-08-06T04:42:23.404Z,17.29
2018-08-06T04:43:23.371Z,17.26
2018-08-06T04:44:23.339Z,17.23
2018-08-06T04:45:23.309Z,17.22
2018-08-06T04:46:23.272Z,17.29
2018-08-06T04:47:23.239Z,17.33
2018-08-06T04:48:23.207Z,17.33
2018-08-06T04:49:23.166Z,17.57
2018-08-06T04:50:23.133Z,17.60
2018-08-06T04:51:23.103Z,17.67
2018-08-06T04:52:23.072Z,17.70
2018-08-06T04:53:23.034Z,17.68
2018-08-06T04:54:22.998Z,17.79
2018-08-06T04:55:22.965Z,17.83
2018-08-06T04:56:22.931Z,18.00
2018-08-06T04:57:22.902Z,18.15
2018-08-06T04:58:22.867Z,18.19
2018-08-06T04:59:22.833Z,18.19
2018-08-06T05:00:22.802Z,18.34
2018-08-06T05:01:22.763Z,18.44
2018-08-06T05:02:22.731Z,18.45
2018-08-06T05:03:22.698Z,18.44
2018-08-06T05:04:22.672Z,18.45
2018-08-06T05:05:22.635Z,18.50
2018-08-06T05:06:22.598Z,18.50
2018-08-06T05:07:22.573Z,18.52
2018-08-06T05:08:22.537Z,18.50
2018-08-06T05:09:22.503Z,18.49
2018-08-06T05:10:22.476Z,18.49
2018-08-06T05:11:22.439Z,18.49
2018-08-06T05:12:22.404Z,18.44
2018-08-06T05:13:22.361Z,18.55
2018-08-06T05:14:22.331Z,18.60
2018-08-06T05:15:22.297Z,18.68
2018-08-06T05:16:22.262Z,18.78
2018-08-06T05:17:22.237Z,18.81
2018-08-06T05:18:22.199Z,18.88
2018-08-06T05:19:22.246Z,18.96
2018-08-06T05:20:22.136Z,19.08
2018-08-06T05:21:22.095Z,19.15
2018-08-06T05:22:22.065Z,19.15
2018-08-06T05:23:22.034Z,19.14
2018-08-06T05:24:22.013Z,19.16
2018-08-06T05:25:21.963Z,19.27
2018-08-06T05:26:21.932Z,19.29
2018-08-06T05:27:21.901Z,19.21
2018-08-06T05:28:21.866Z,19.27
2018-08-06T05:29:21.837Z,19.19
2018-08-06T05:30:21.804Z,19.31
2018-08-06T05:31:21.811Z,19.31
2018-08-06T05:32:21.739Z,19.37
2018-08-06T05:33:21.704Z,19.51
2018-08-06T05:34:21.668Z,19.49
2018-08-06T05:35:21.636Z,19.64
2018-08-06T05:36:21.604Z,19.67
2018-08-06T05:37:21.576Z,19.71
2018-08-06T05:38:21.543Z,19.74
2018-08-06T05:39:21.504Z,19.81
2018-08-06T05:40:21.474Z,19.89
2018-08-06T05:41:21.444Z,19.94
2018-08-06T05:42:21.412Z,20.07
2018-08-06T05:43:21.381Z,20.07
2018-08-06T05:44:21.343Z,20.03
2018-08-06T05:45:21.331Z,20.14
2018-08-06T05:46:21.278Z,20.14
2018-08-06T05:47:21.244Z,20.22
2018-08-06T05:48:21.263Z,20.29
2018-08-06T05:49:21.189Z,20.24
2018-08-06T05:50:21.153Z,20.39
2018-08-06T05:51:21.121Z,20.51
2018-08-06T05:52:21.089Z,20.50
2018-08-06T05:53:21.053Z,20.58
2018-08-06T05:54:21.020Z,20.59
2018-08-06T05:55:21.003Z,20.58
2018-08-06T05:56:20.960Z,20.65
2018-08-06T05:57:20.929Z,20.70
2018-08-06T05:58:20.905Z,20.75
2018-08-06T05:59:20.858Z,20.72
2018-08-06T06:00:20.829Z,20.84
2018-08-06T06:01:20.800Z,20.85
2018-08-06T06:02:20.768Z,21.05
2018-08-06T06:03:20.813Z,21.00
2018-08-06T06:04:20.706Z,21.02
2018-08-06T06:05:20.669Z,21.17
2018-08-06T06:06:20.635Z,21.02
2018-08-06T06:07:20.607Z,21.14
2018-08-06T06:08:20.573Z,21.15
2018-08-06T06:09:20.553Z,21.32
2018-08-06T06:10:20.514Z,21.21
2018-08-06T06:11:20.477Z,21.29
2018-08-06T06:12:20.448Z,21.32
2018-08-06T06:13:20.419Z,21.27
2018-08-06T06:14:20.388Z,21.24
2018-08-06T06:15:20.369Z,21.30
2018-08-06T06:16:20.324Z,21.33
2018-08-06T06:17:20.295Z,21.39
2018-08-06T06:18:20.255Z,21.37
2018-08-06T06:19:20.225Z,21.39
2018-08-06T06:20:20.195Z,21.50
2018-08-06T06:21:20.164Z,21.60
2018-08-06T06:22:20.138Z,21.50
2018-08-06T06:23:20.110Z,21.61
2018-08-06T06:24:20.071Z,21.57
2018-08-06T06:25:20.046Z,21.69
2018-08-06T06:26:20.005Z,21.77
2018-08-06T06:27:19.979Z,21.80
2018-08-06T06:28:19.946Z,21.88
2018-08-06T06:29:19.912Z,21.92
2018-08-06T06:30:19.879Z,21.95
2018-08-06T06:31:19.848Z,21.95
2018-08-06T06:32:19.822Z,22.08
2018-08-06T06:33:19.796Z,22.02
2018-08-06T06:34:19.820Z,22.10
2018-08-06T06:35:19.731Z,22.14
2018-08-06T06:36:19.697Z,22.15
2018-08-06T06:37:19.664Z,22.25
2018-08-06T06:38:19.629Z,22.26
2018-08-06T06:39:19.604Z,22.29
2018-08-06T06:40:19.574Z,22.36
2018-08-06T06:41:19.553Z,22.41
2018-08-06T06:42:19.519Z,22.35
2018-08-06T06:43:19.476Z,22.39
2018-08-06T06:44:19.446Z,22.44
2018-08-06T06:45:19.417Z,22.44
2018-08-06T06:46:19.388Z,22.57
2018-08-06T06:47:19.360Z,22.57
2018-08-06T06:48:19.325Z,22.68
2018-08-06T06:49:19.360Z,22.75
2018-08-06T06:50:19.260Z,22.96
2018-08-06T06:51:19.231Z,22.98
2018-08-06T06:52:19.199Z,23.00
2018-08-06T06:53:19.170Z,23.10
2018-08-06T06:54:19.192Z,23.31
2018-08-06T06:55:19.111Z,23.43
2018-08-06T06:56:19.080Z,23.47
2018-08-06T06:57:19.046Z,23.55
2018-08-06T06:58:19.014Z,23.71
2018-08-06T06:59:18.990Z,23.78
2018-08-06T07:00:18.958Z,23.92
2018-08-06T07:01:18.925Z,24.03
2018-08-06T07:02:18.893Z,23.98
2018-08-06T07:03:18.864Z,24.06
2018-08-06T07:04:18.833Z,24.20
2018-08-06T07:05:18.806Z,24.20
2018-08-06T07:06:18.786Z,24.32
2018-08-06T07:07:18.752Z,24.39
2018-08-06T07:08:18.715Z,24.53
2018-08-06T07:09:18.682Z,24.66
2018-08-06T07:10:18.649Z,24.68
2018-08-06T07:11:18.645Z,24.73
2018-08-06T07:12:18.594Z,24.74
2018-08-06T07:13:18.579Z,24.92
2018-08-06T07:14:18.538Z,24.91
2018-08-06T07:15:18.502Z,24.99
2018-08-06T07:16:18.472Z,25.11
2018-08-06T07:17:18.447Z,25.23
2018-08-06T07:18:18.417Z,25.25
2018-08-06T07:19:18.386Z,25.36
2018-08-06T07:20:18.381Z,25.51
2018-08-06T07:21:18.323Z,25.58
2018-08-06T07:22:18.296Z,25.65
2018-08-06T07:23:18.268Z,25.68
2018-08-06T07:24:18.237Z,25.83
2018-08-06T07:25:18.209Z,25.96
2018-08-06T07:26:18.179Z,26.06
2018-08-06T07:27:18.155Z,26.05
2018-08-06T07:28:18.118Z,26.23
2018-08-06T07:29:18.091Z,26.15
2018-08-06T07:30:18.059Z,26.15
2018-08-06T07:31:18.035Z,26.21
2018-08-06T07:32:18.000Z,26.28
2018-08-06T07:33:17.969Z,26.38
2018-08-06T07:34:17.946Z,26.43
2018-08-06T07:35:17.908Z,26.55
2018-08-06T07:36:17.882Z,26.45
2018-08-06T07:37:17.853Z,26.68
2018-08-06T07:38:17.831Z,26.73
2018-08-06T07:39:17.811Z,26.84
2018-08-06T07:40:17.770Z,26.81
2018-08-06T07:41:17.745Z,26.90
2018-08-06T07:42:17.704Z,26.95
2018-08-06T07:43:17.741Z,26.99
2018-08-06T07:44:17.650Z,27.10
2018-08-06T07:45:17.623Z,27.11
2018-08-06T07:46:17.593Z,27.14
2018-08-06T07:47:17.561Z,27.20
2018-08-06T07:48:17.533Z,27.17
2018-08-06T07:49:17.505Z,27.18
2018-08-06T07:50:17.481Z,27.10
2018-08-06T07:51:17.456Z,27.03
2018-08-06T07:52:17.426Z,27.07
2018-08-06T07:53:17.393Z,27.14
2018-08-06T07:54:17.359Z,27.15
2018-08-06T07:55:17.330Z,27.15
2018-08-06T07:56:17.305Z,27.15
2018-08-06T07:57:17.276Z,27.15
2018-08-06T07:58:17.260Z,27.18
2018-08-06T07:59:17.226Z,27.22
2018-08-06T08:00:17.192Z,27.29
2018-08-06T08:01:17.160Z,27.33
2018-08-06T08:02:17.130Z,27.44
2018-08-06T08:03:17.108Z,27.39
2018-08-06T08:04:17.085Z,27.42
2018-08-06T08:05:17.047Z,27.51
2018-08-06T08:06:17.068Z,27.67
2018-08-06T08:07:16.991Z,27.82
2018-08-06T08:08:16.964Z,27.74
2018-08-06T08:09:16.936Z,27.95
2018-08-06T08:10:16.910Z,28.04
2018-08-06T08:11:16.882Z,27.96
2018-08-06T08:12:16.851Z,27.93
2018-08-06T08:13:16.820Z,27.90
2018-08-06T08:14:16.791Z,27.90
2018-08-06T08:15:16.768Z,27.90
2018-08-06T08:16:16.738Z,27.85
2018-08-06T08:17:16.712Z,27.90
2018-08-06T08:18:16.687Z,27.86
2018-08-06T08:19:16.651Z,28.00
2018-08-06T08:20:16.740Z,27.93
2018-08-06T08:21:16.599Z,28.05
2018-08-06T08:22:16.573Z,28.17
2018-08-06T08:23:16.547Z,28.20
2018-08-06T08:24:16.516Z,28.32
2018-08-06T08:25:16.490Z,28.26
2018-08-06T08:26:16.460Z,28.26
2018-08-06T08:27:16.428Z,28.29
2018-08-06T08:28:16.405Z,28.39
2018-08-06T08:29:16.378Z,28.33
2018-08-06T08:30:16.356Z,28.57
2018-08-06T08:31:16.327Z,28.42
2018-08-06T08:32:16.294Z,28.41
2018-08-06T08:33:16.263Z,28.47
2018-08-06T08:34:16.233Z,28.52
2018-08-06T08:35:16.213Z,28.35
2018-08-06T08:36:16.183Z,28.54
2018-08-06T08:37:16.153Z,28.45
2018-08-06T08:38:16.122Z,28.51
2018-08-06T08:39:16.099Z,28.63
2018-08-06T08:40:16.070Z,28.66
2018-08-06T08:41:16.045Z,28.69
2018-08-06T08:42:16.019Z,28.66
2018-08-06T08:43:15.994Z,28.75
2018-08-06T08:44:15.962Z,28.74
2018-08-06T08:45:15.933Z,28.75
2018-08-06T08:46:15.909Z,28.88
2018-08-06T08:47:15.876Z,28.93
2018-08-06T08:48:15.851Z,28.86
2018-08-06T08:49:15.825Z,28.94
2018-08-06T08:50:15.802Z,29.04
2018-08-06T08:51:15.766Z,28.98
2018-08-06T08:52:15.757Z,29.12
2018-08-06T08:53:15.715Z,29.17
2018-08-06T08:54:15.692Z,29.16
2018-08-06T08:55:15.663Z,29.14
2018-08-06T08:56:15.634Z,29.24
2018-08-06T08:57:15.604Z,29.17
2018-08-06T08:58:15.574Z,29.22
2018-08-06T08:59:15.547Z,29.17
2018-08-06T09:00:15.523Z,29.26
2018-08-06T09:01:15.496Z,29.27
2018-08-06T09:02:15.471Z,29.12
2018-08-06T09:03:15.453Z,29.13
2018-08-06T09:04:15.422Z,29.14
2018-08-06T09:05:15.387Z,29.20
2018-08-06T09:06:15.357Z,29.19
2018-08-06T09:07:15.381Z,29.14
2018-08-06T09:08:15.308Z,29.23
2018-08-06T09:09:15.278Z,29.34
2018-08-06T09:10:15.248Z,29.45
2018-08-06T09:11:15.222Z,29.44
2018-08-06T09:12:15.198Z,29.47
2018-08-06T09:13:15.171Z,29.31
2018-08-06T09:14:15.151Z,29.24
2018-08-06T09:15:15.122Z,29.16
2018-08-06T09:16:15.093Z,29.16
2018-08-06T09:17:15.063Z,29.23
2018-08-06T09:18:15.035Z,29.27
2018-08-06T09:19:15.007Z,29.42
2018-08-06T09:20:14.982Z,29.31
2018-08-06T09:21:15.012Z,29.24
2018-08-06T09:22:14.932Z,29.32
2018-08-06T09:23:14.901Z,29.38
2018-08-06T09:24:14.879Z,29.38
2018-08-06T09:25:14.849Z,29.29
2018-08-06T09:26:14.825Z,29.35
2018-08-06T09:27:14.803Z,29.22
2018-08-06T09:28:14.770Z,29.17
2018-08-06T09:29:14.740Z,29.24
2018-08-06T09:30:14.712Z,29.31
2018-08-06T09:31:14.684Z,29.29
2018-08-06T09:32:14.662Z,29.34
2018-08-06T09:33:14.635Z,29.26
2018-08-06T09:34:14.611Z,29.50
2018-08-06T09:35:14.584Z,29.53
2018-08-06T09:36:14.555Z,29.71
2018-08-06T09:37:14.525Z,29.78
2018-08-06T09:38:14.498Z,29.94
2018-08-06T09:39:14.478Z,29.88
2018-08-06T09:40:14.471Z,29.93
2018-08-06T09:41:14.420Z,29.97
2018-08-06T09:42:14.394Z,30.03
2018-08-06T09:43:14.370Z,30.10
2018-08-06T09:44:14.339Z,29.98
2018-08-06T09:45:14.316Z,30.06
2018-08-06T09:46:14.292Z,30.09
2018-08-06T09:47:14.265Z,30.09
2018-08-06T09:48:14.237Z,30.05
2018-08-06T09:49:14.205Z,29.88
2018-08-06T09:50:14.181Z,29.95
2018-08-06T09:51:14.157Z,30.03
2018-08-06T09:52:14.128Z,30.10
2018-08-06T09:53:14.109Z,30.19
2018-08-06T09:54:14.077Z,30.28
2018-08-06T09:55:14.051Z,30.27
2018-08-06T09:56:14.021Z,30.32
2018-08-06T09:57:14.076Z,30.32
2018-08-06T09:58:13.972Z,30.34
2018-08-06T09:59:13.948Z,30.30
2018-08-06T10:00:13.922Z,30.46
2018-08-06T10:01:13.892Z,30.51
2018-08-06T10:02:13.865Z,30.53
2018-08-06T10:03:13.838Z,30.40
2018-08-06T10:04:13.812Z,30.34
2018-08-06T10:05:13.790Z,30.21
2018-08-06T10:06:13.893Z,30.47
2018-08-06T10:07:13.735Z,30.53
2018-08-06T10:21:25.136Z,30.46
2018-08-06T10:22:25.075Z,30.50
2018-08-06T10:23:25.067Z,30.63
2018-08-06T10:24:25.071Z,30.78
2018-08-06T10:25:24.978Z,30.80
2018-08-06T10:26:24.949Z,30.94
2018-08-06T10:27:24.926Z,31.02
2018-08-06T10:28:24.896Z,31.03
2018-08-06T10:29:24.870Z,30.78
2018-08-06T10:30:24.957Z,30.69
2018-08-06T10:31:24.812Z,30.57
2018-08-06T10:32:24.782Z,30.61
2018-08-06T10:33:24.759Z,30.53
2018-08-06T10:34:24.725Z,30.37
2018-08-06T10:35:24.701Z,30.50
2018-08-06T10:36:24.676Z,30.51
2018-08-06T10:37:24.650Z,30.48
2018-08-06T10:38:24.614Z,30.59
2018-08-06T10:39:24.588Z,30.69
2018-08-06T10:40:24.619Z,30.85
2018-08-06T10:41:24.533Z,31.07
2018-08-06T10:42:24.507Z,31.12
2018-08-06T10:43:24.478Z,31.14
2018-08-06T10:44:24.455Z,31.17
2018-08-06T10:45:24.427Z,31.06
2018-08-06T10:46:24.400Z,30.99
2018-08-06T10:47:24.376Z,31.00
2018-08-06T10:48:24.417Z,31.21
2018-08-06T10:49:24.322Z,31.28
2018-08-06T10:50:24.298Z,31.12
2018-08-06T10:51:24.299Z,31.06
2018-08-06T10:52:24.253Z,31.07
2018-08-06T10:53:24.221Z,31.24
2018-08-06T10:54:24.196Z,31.29
2018-08-06T10:55:24.166Z,31.21
2018-08-06T10:56:24.137Z,31.27
2018-08-06T10:57:24.112Z,31.46
2018-08-06T10:58:24.085Z,31.52
2018-08-06T10:59:24.065Z,31.55
2018-08-06T11:00:24.033Z,31.47
2018-08-06T11:01:24.008Z,31.31
2018-08-06T11:02:23.982Z,31.22
2018-08-06T11:03:23.958Z,31.31
2018-08-06T11:04:23.941Z,31.29
2018-08-06T11:05:23.912Z,31.39
2018-08-06T11:06:23.878Z,31.21
2018-08-06T11:07:23.854Z,31.24
2018-08-06T11:08:23.827Z,31.25
2018-08-06T11:09:23.807Z,31.09
2018-08-06T11:10:23.777Z,31.05
2018-08-06T11:11:23.755Z,30.99
2018-08-06T11:12:23.724Z,31.03
2018-08-06T11:13:23.699Z,30.97
2018-08-06T11:14:23.733Z,30.99
2018-08-06T11:15:23.645Z,30.97
2018-08-06T11:16:23.648Z,31.00
2018-08-06T11:17:23.595Z,31.09
2018-08-06T11:18:23.577Z,31.14
2018-08-06T11:19:23.544Z,31.20
2018-08-06T11:20:23.550Z,31.24
2018-08-06T11:21:23.492Z,31.24
2018-08-06T11:22:23.467Z,31.36
2018-08-06T11:23:23.443Z,31.36
2018-08-06T11:24:23.419Z,31.34
2018-08-06T11:25:23.389Z,31.40
2018-08-06T11:26:23.365Z,31.46
2018-08-06T11:27:23.337Z,31.42
2018-08-06T11:28:23.382Z,31.49
2018-08-06T11:29:23.298Z,31.77
2018-08-06T11:30:23.267Z,31.74
2018-08-06T11:31:23.237Z,31.66
2018-08-06T11:32:23.212Z,31.62
2018-08-06T11:33:23.185Z,31.64
2018-08-06T11:34:23.159Z,31.59
2018-08-06T11:35:23.142Z,31.65
2018-08-06T11:36:23.110Z,31.62
2018-08-06T11:37:23.082Z,31.65
2018-08-06T11:38:23.057Z,31.69
2018-08-06T11:39:23.038Z,31.65
2018-08-06T11:40:23.004Z,31.76
2018-08-06T11:41:22.981Z,31.64
2018-08-06T11:42:22.960Z,31.69
2018-08-06T11:43:22.933Z,31.70
2018-08-06T11:44:22.915Z,31.65
2018-08-06T11:45:22.901Z,31.84
2018-08-06T11:46:22.854Z,31.93
2018-08-06T11:47:22.826Z,32.00
2018-08-06T11:48:22.807Z,31.99
2018-08-06T11:49:22.777Z,32.03
2018-08-06T11:50:22.750Z,32.07
2018-08-06T11:51:22.728Z,32.09
2018-08-06T11:52:22.704Z,32.30
2018-08-06T11:53:22.693Z,32.33
2018-08-06T11:54:22.657Z,32.26
2018-08-06T11:55:22.624Z,32.19
2018-08-06T11:56:22.622Z,32.26
2018-08-06T11:57:22.575Z,32.26
2018-08-06T11:58:22.550Z,32.27
2018-08-06T11:59:22.526Z,32.22
2018-08-06T12:00:22.508Z,32.11
2018-08-06T12:01:22.474Z,32.15
2018-08-06T12:02:22.453Z,32.14
2018-08-06T12:03:22.428Z,32.08
2018-08-06T12:04:22.400Z,31.96
2018-08-06T12:05:22.843Z,31.96
2018-08-06T12:06:22.350Z,32.00
2018-08-06T12:07:22.324Z,31.97
2018-08-06T12:08:22.302Z,32.12
2018-08-06T12:09:22.273Z,32.15
2018-08-06T12:10:22.249Z,32.22
2018-08-06T12:11:22.226Z,32.40
2018-08-06T12:12:22.197Z,32.38
2018-08-06T12:13:22.173Z,32.29
2018-08-06T12:14:22.147Z,32.29
2018-08-06T12:15:22.146Z,32.26
2018-08-06T12:16:22.099Z,32.34
2018-08-06T12:17:22.073Z,32.46
2018-08-06T12:18:22.051Z,32.53
2018-08-06T12:19:22.021Z,32.60
2018-08-06T12:20:22.017Z,32.56
2018-08-06T12:21:21.976Z,32.55
2018-08-06T12:22:21.951Z,32.48
2018-08-06T12:23:21.924Z,32.56
2018-08-06T12:24:21.986Z,32.51
2018-08-06T12:25:21.872Z,32.41
2018-08-06T12:26:21.909Z,32.63
2018-08-06T12:27:21.849Z,32.63
2018-08-06T12:28:21.800Z,32.64
2018-08-06T12:29:21.770Z,32.71
2018-08-06T12:30:21.748Z,32.77
2018-08-06T12:31:21.738Z,32.78
2018-08-06T12:32:21.698Z,32.74
2018-08-06T12:33:21.670Z,32.78
2018-08-06T12:34:21.646Z,32.86
2018-08-06T12:35:21.625Z,32.87
2018-08-06T12:36:21.599Z,32.80
2018-08-06T12:37:21.573Z,32.85
2018-08-06T12:38:21.552Z,32.97
2018-08-06T12:39:21.525Z,32.87
2018-08-06T12:40:21.503Z,32.83
2018-08-06T12:41:21.473Z,33.01
2018-08-06T12:42:21.447Z,32.87
2018-08-06T12:43:21.428Z,32.95
2018-08-06T12:44:21.413Z,33.08
2018-08-06T12:45:21.388Z,33.01
2018-08-06T12:46:21.384Z,33.24
2018-08-06T12:47:21.326Z,33.23
2018-08-06T12:48:21.299Z,33.27
2018-08-06T12:49:21.275Z,33.27
2018-08-06T12:50:21.255Z,33.31
2018-08-06T12:51:21.224Z,33.34
2018-08-06T12:52:21.209Z,33.39
2018-08-06T12:53:21.175Z,33.47
2018-08-06T12:54:21.158Z,33.50
2018-08-06T12:55:21.129Z,33.49
2018-08-06T12:56:21.101Z,33.52
2018-08-06T12:57:21.081Z,33.52
2018-08-06T12:58:21.053Z,33.53
2018-08-06T12:59:21.028Z,33.49
2018-08-06T13:00:21.005Z,33.37
2018-08-06T13:01:20.980Z,33.24
2018-08-06T13:02:20.955Z,33.19
2018-08-06T13:03:20.934Z,33.30
2018-08-06T13:04:20.908Z,33.22
2018-08-06T13:05:20.882Z,33.22
2018-08-06T13:06:20.856Z,33.14
2018-08-06T13:07:20.834Z,33.19
2018-08-06T13:08:20.806Z,33.22
2018-08-06T13:09:20.783Z,33.15
2018-08-06T13:10:20.759Z,33.24
2018-08-06T13:11:20.739Z,33.19
2018-08-06T13:12:20.714Z,33.01
2018-08-06T13:13:20.684Z,32.95
2018-08-06T13:14:20.663Z,32.90
2018-08-06T13:15:20.639Z,32.83
2018-08-06T13:16:20.611Z,32.89
2018-08-06T13:17:20.587Z,32.96
2018-08-06T13:18:20.562Z,32.92
2018-08-06T13:19:20.541Z,32.75
2018-08-06T13:20:20.514Z,32.60
2018-08-06T13:21:20.499Z,32.67
2018-08-06T13:22:20.470Z,32.74